sensor_id;sensor_type;location;lat;lon;timestamp;pressure;altitude;pressure_sealevel;temperature;humidity
31483;BME280;18103;52.246;8.052;2023-07-20T00:02:18;100125.75;;;17.40;84.27
31483;BME280;18103;52.246;8.052;2023-07-20T00:04:44;100123.88;;;17.41;83.70
31483;BME280;18103;52.246;8.052;2023-07-20T00:07:09;100123.09;;;17.32;84.20
31483;BME280;18103;52.246;8.052;2023-07-20T00:09:39;100123.22;;;17.39;84.54
31483;BME280;18103;52.246;8.052;2023-07-20T00:12:05;100121.06;;;17.34;84.06
31483;BME280;18103;52.246;8.052;2023-07-20T00:14:30;100121.75;;;17.28;84.91
31483;BME280;18103;52.246;8.052;2023-07-20T00:16:57;100122.91;;;17.34;84.82
31483;BME280;18103;52.246;8.052;2023-07-20T00:19:28;100120.88;;;17.36;84.90
31483;BME280;18103;52.246;8.052;2023-07-20T00:21:59;100117.41;;;17.35;84.49
31483;BME280;18103;52.246;8.052;2023-07-20T00:24:24;100111.22;;;17.35;84.28
31483;BME280;18103;52.246;8.052;2023-07-20T00:26:50;100114.91;;;17.34;84.44
31483;BME280;18103;52.246;8.052;2023-07-20T00:29:23;100107.56;;;17.36;84.30
31483;BME280;18103;52.246;8.052;2023-07-20T00:31:48;100113.06;;;17.34;84.64
31483;BME280;18103;52.246;8.052;2023-07-20T00:34:14;100116.41;;;17.36;84.60
31483;BME280;18103;52.246;8.052;2023-07-20T00:36:42;100118.06;;;17.29;84.75
31483;BME280;18103;52.246;8.052;2023-07-20T00:39:07;100103.91;;;17.28;84.63
31483;BME280;18103;52.246;8.052;2023-07-20T00:41:36;100112.06;;;17.35;84.77
31483;BME280;18103;52.246;8.052;2023-07-20T00:44:01;100112.53;;;17.39;84.58
31483;BME280;18103;52.246;8.052;2023-07-20T00:46:27;100096.88;;;17.36;84.64
31483;BME280;18103;52.246;8.052;2023-07-20T00:48:52;100104.72;;;17.37;84.41
31483;BME280;18103;52.246;8.052;2023-07-20T00:51:21;100110.56;;;17.33;84.66
31483;BME280;18103;52.246;8.052;2023-07-20T00:53:47;100105.22;;;17.41;84.96
31483;BME280;18103;52.246;8.052;2023-07-20T00:56:12;100108.41;;;17.36;85.19
31483;BME280;18103;52.246;8.052;2023-07-20T00:58:38;100097.38;;;17.39;84.85
31483;BME280;18103;52.246;8.052;2023-07-20T01:01:07;100098.38;;;17.38;84.54
31483;BME280;18103;52.246;8.052;2023-07-20T01:03:35;100101.88;;;17.39;84.62
31483;BME280;18103;52.246;8.052;2023-07-20T01:06:24;100099.06;;;17.32;84.58
31483;BME280;18103;52.246;8.052;2023-07-20T01:13:59;100096.41;;;17.32;84.75
31483;BME280;18103;52.246;8.052;2023-07-20T01:16:24;100095.91;;;17.28;84.91
31483;BME280;18103;52.246;8.052;2023-07-20T01:18:53;100106.75;;;17.27;84.30
31483;BME280;18103;52.246;8.052;2023-07-20T01:21:26;100097.41;;;17.31;84.89
31483;BME280;18103;52.246;8.052;2023-07-20T01:26:38;100098.72;;;17.35;85.40
31483;BME280;18103;52.246;8.052;2023-07-20T01:29:42;100096.22;;;17.34;84.97
31483;BME280;18103;52.246;8.052;2023-07-20T01:32:17;100090.38;;;17.30;84.96
31483;BME280;18103;52.246;8.052;2023-07-20T01:34:44;100092.41;;;17.28;85.26
31483;BME280;18103;52.246;8.052;2023-07-20T01:37:12;100089.22;;;17.33;84.83
31483;BME280;18103;52.246;8.052;2023-07-20T01:39:38;100093.22;;;17.28;84.79
31483;BME280;18103;52.246;8.052;2023-07-20T01:42:04;100095.56;;;17.32;84.83
31483;BME280;18103;52.246;8.052;2023-07-20T01:44:29;100095.91;;;17.28;84.81
31483;BME280;18103;52.246;8.052;2023-07-20T01:47:00;100095.56;;;17.32;85.06
31483;BME280;18103;52.246;8.052;2023-07-20T01:49:27;100092.25;;;17.30;84.76
31483;BME280;18103;52.246;8.052;2023-07-20T01:51:53;100100.53;;;17.35;84.80
31483;BME280;18103;52.246;8.052;2023-07-20T01:54:23;100112.53;;;17.39;84.49
31483;BME280;18103;52.246;8.052;2023-07-20T01:56:53;100107.44;;;17.21;84.50
31483;BME280;18103;52.246;8.052;2023-07-20T01:59:18;100118.78;;;17.06;84.40
31483;BME280;18103;52.246;8.052;2023-07-20T02:01:46;100111.47;;;16.92;84.54
31483;BME280;18103;52.246;8.052;2023-07-20T02:04:14;100107.13;;;16.99;84.17
31483;BME280;18103;52.246;8.052;2023-07-20T02:06:39;100112.94;;;16.86;84.34
31483;BME280;18103;52.246;8.052;2023-07-20T02:09:04;100109.94;;;16.73;84.52
31483;BME280;18103;52.246;8.052;2023-07-20T02:11:30;100114.78;;;16.61;83.74
31483;BME280;18103;52.246;8.052;2023-07-20T02:13:55;100118.75;;;16.57;83.74
31483;BME280;18103;52.246;8.052;2023-07-20T02:16:21;100111.88;;;16.30;83.39
31483;BME280;18103;52.246;8.052;2023-07-20T02:18:46;100117.25;;;16.46;83.39
31483;BME280;18103;52.246;8.052;2023-07-20T02:21:17;100119.84;;;16.21;83.47
31483;BME280;18103;52.246;8.052;2023-07-20T02:23:44;100128.59;;;16.48;83.06
31483;BME280;18103;52.246;8.052;2023-07-20T02:26:12;100131.53;;;16.29;84.44
31483;BME280;18103;52.246;8.052;2023-07-20T02:28:37;100135.63;;;16.06;85.96
31483;BME280;18103;52.246;8.052;2023-07-20T02:31:02;100133.97;;;16.05;86.27
31483;BME280;18103;52.246;8.052;2023-07-20T02:33:31;100137.63;;;16.04;86.60
31483;BME280;18103;52.246;8.052;2023-07-20T02:35:56;100133.16;;;16.21;85.78
31483;BME280;18103;52.246;8.052;2023-07-20T02:38:22;100134.81;;;16.14;86.31
31483;BME280;18103;52.246;8.052;2023-07-20T02:40:47;100118.88;;;16.31;84.68
31483;BME280;18103;52.246;8.052;2023-07-20T02:43:12;100128.41;;;16.41;84.58
31483;BME280;18103;52.246;8.052;2023-07-20T02:45:41;100134.38;;;16.27;85.50
31483;BME280;18103;52.246;8.052;2023-07-20T02:48:08;100141.47;;;16.10;86.58
31483;BME280;18103;52.246;8.052;2023-07-20T02:50:38;100138.00;;;16.18;85.55
31483;BME280;18103;52.246;8.052;2023-07-20T02:53:05;100141.19;;;16.30;85.47
31483;BME280;18103;52.246;8.052;2023-07-20T02:55:33;100138.34;;;16.31;85.04
31483;BME280;18103;52.246;8.052;2023-07-20T02:57:59;100135.47;;;16.08;86.39
31483;BME280;18103;52.246;8.052;2023-07-20T03:00:26;100144.13;;;16.10;86.93
31483;BME280;18103;52.246;8.052;2023-07-20T03:02:55;100153.81;;;16.19;86.12
31483;BME280;18103;52.246;8.052;2023-07-20T03:05:23;100156.47;;;16.19;85.84
31483;BME280;18103;52.246;8.052;2023-07-20T03:07:55;100159.09;;;16.03;87.21
31483;BME280;18103;52.246;8.052;2023-07-20T03:10:20;100151.97;;;16.20;86.06
31483;BME280;18103;52.246;8.052;2023-07-20T03:12:46;100156.47;;;16.19;86.91
31483;BME280;18103;52.246;8.052;2023-07-20T03:15:14;100160.75;;;16.04;87.43
31483;BME280;18103;52.246;8.052;2023-07-20T03:17:40;100163.63;;;16.11;87.63
31483;BME280;18103;52.246;8.052;2023-07-20T03:20:05;100156.91;;;15.98;87.89
31483;BME280;18103;52.246;8.052;2023-07-20T03:22:34;100155.03;;;15.82;88.83
31483;BME280;18103;52.246;8.052;2023-07-20T03:24:59;100161.63;;;16.13;87.15
31483;BME280;18103;52.246;8.052;2023-07-20T03:27:25;100158.47;;;16.09;87.40
31483;BME280;18103;52.246;8.052;2023-07-20T03:29:50;100157.06;;;15.97;87.30
31483;BME280;18103;52.246;8.052;2023-07-20T03:32:15;100160.75;;;16.04;86.85
31483;BME280;18103;52.246;8.052;2023-07-20T03:34:44;100159.59;;;16.06;86.56
31483;BME280;18103;52.246;8.052;2023-07-20T03:37:09;100160.53;;;15.89;87.84
31483;BME280;18103;52.246;8.052;2023-07-20T03:39:34;100162.56;;;15.95;87.39
31483;BME280;18103;52.246;8.052;2023-07-20T03:42:00;100163.13;;;16.15;86.48
31483;BME280;18103;52.246;8.052;2023-07-20T03:44:25;100162.00;;;16.26;85.60
31483;BME280;18103;52.246;8.052;2023-07-20T03:46:50;100172.78;;;16.16;86.99
31483;BME280;18103;52.246;8.052;2023-07-20T03:49:16;100164.47;;;16.19;86.93
31483;BME280;18103;52.246;8.052;2023-07-20T03:51:43;100170.13;;;16.16;87.01
31483;BME280;18103;52.246;8.052;2023-07-20T03:54:11;100163.31;;;16.22;87.02
31483;BME280;18103;52.246;8.052;2023-07-20T03:56:36;100163.16;;;16.23;86.54
31483;BME280;18103;52.246;8.052;2023-07-20T03:59:07;100163.81;;;16.25;86.47
31483;BME280;18103;52.246;8.052;2023-07-20T04:01:35;100167.91;;;16.12;87.32
31483;BME280;18103;52.246;8.052;2023-07-20T04:04:05;100173.78;;;16.15;86.74
31483;BME280;18103;52.246;8.052;2023-07-20T04:06:31;100173.78;;;16.15;86.54
31483;BME280;18103;52.246;8.052;2023-07-20T04:08:56;100171.94;;;16.16;86.92
31483;BME280;18103;52.246;8.052;2023-07-20T04:11:24;100170.94;;;16.17;86.74
31483;BME280;18103;52.246;8.052;2023-07-20T04:13:51;100174.47;;;16.17;86.85
31483;BME280;18103;52.246;8.052;2023-07-20T04:16:17;100172.63;;;16.18;86.48
31483;BME280;18103;52.246;8.052;2023-07-20T04:18:42;100171.09;;;16.15;87.07
31483;BME280;18103;52.246;8.052;2023-07-20T04:21:08;100174.13;;;16.20;86.92
31483;BME280;18103;52.246;8.052;2023-07-20T04:23:36;100167.78;;;16.13;86.99
31483;BME280;18103;52.246;8.052;2023-07-20T04:26:02;100172.47;;;16.19;86.89
31483;BME280;18103;52.246;8.052;2023-07-20T04:28:27;100182.94;;;16.21;86.71
31483;BME280;18103;52.246;8.052;2023-07-20T04:31:09;100184.94;;;16.19;86.76
31483;BME280;18103;52.246;8.052;2023-07-20T04:33:35;100180.28;;;16.21;86.91
31483;BME280;18103;52.246;8.052;2023-07-20T04:36:00;100177.13;;;16.17;87.37
31483;BME280;18103;52.246;8.052;2023-07-20T04:38:28;100175.75;;;16.05;87.55
31483;BME280;18103;52.246;8.052;2023-07-20T04:40:54;100182.88;;;16.04;87.33
31483;BME280;18103;52.246;8.052;2023-07-20T04:43:21;100189.34;;;16.02;87.80
31483;BME280;18103;52.246;8.052;2023-07-20T04:45:47;100195.06;;;16.15;86.78
31483;BME280;18103;52.246;8.052;2023-07-20T04:48:14;100188.44;;;16.19;86.79
31483;BME280;18103;52.246;8.052;2023-07-20T04:50:41;100185.13;;;16.25;86.98
31483;BME280;18103;52.246;8.052;2023-07-20T04:53:07;100184.47;;;16.23;86.68
31483;BME280;18103;52.246;8.052;2023-07-20T04:55:35;100186.09;;;16.16;86.46
31483;BME280;18103;52.246;8.052;2023-07-20T04:58:02;100186.88;;;16.08;86.70
31483;BME280;18103;52.246;8.052;2023-07-20T05:00:30;100197.03;;;16.05;86.70
31483;BME280;18103;52.246;8.052;2023-07-20T05:02:59;100204.75;;;15.82;88.06
31483;BME280;18103;52.246;8.052;2023-07-20T05:05:24;100200.09;;;15.84;87.44
31483;BME280;18103;52.246;8.052;2023-07-20T05:07:52;100196.97;;;15.88;87.20
31483;BME280;18103;52.246;8.052;2023-07-20T05:10:18;100202.03;;;16.08;87.01
31483;BME280;18103;52.246;8.052;2023-07-20T05:12:43;100200.47;;;15.71;87.52
31483;BME280;18103;52.246;8.052;2023-07-20T05:15:09;100199.81;;;15.69;88.05
31483;BME280;18103;52.246;8.052;2023-07-20T05:17:34;100202.66;;;15.94;87.08
31483;BME280;18103;52.246;8.052;2023-07-20T05:20:00;100207.09;;;15.67;88.11
31483;BME280;18103;52.246;8.052;2023-07-20T05:22:25;100196.69;;;15.73;87.70
31483;BME280;18103;52.246;8.052;2023-07-20T05:24:53;100204.16;;;15.70;87.91
31483;BME280;18103;52.246;8.052;2023-07-20T05:27:18;100210.84;;;15.74;87.70
31483;BME280;18103;52.246;8.052;2023-07-20T05:29:46;100209.63;;;15.95;87.18
31483;BME280;18103;52.246;8.052;2023-07-20T05:32:15;100210.31;;;15.70;87.93
31483;BME280;18103;52.246;8.052;2023-07-20T05:34:42;100214.44;;;15.91;87.18
31483;BME280;18103;52.246;8.052;2023-07-20T05:37:10;100219.19;;;15.79;87.38
31483;BME280;18103;52.246;8.052;2023-07-20T05:39:37;100228.41;;;15.67;87.42
31483;BME280;18103;52.246;8.052;2023-07-20T05:42:05;100228.09;;;15.88;87.09
31483;BME280;18103;52.246;8.052;2023-07-20T05:44:33;100221.94;;;15.69;87.14
31483;BME280;18103;52.246;8.052;2023-07-20T05:46:58;100234.03;;;15.82;86.97
31483;BME280;18103;52.246;8.052;2023-07-20T05:49:24;100227.16;;;16.05;86.79
31483;BME280;18103;52.246;8.052;2023-07-20T05:51:49;100230.34;;;16.09;87.25
31483;BME280;18103;52.246;8.052;2023-07-20T05:54:14;100226.84;;;16.08;87.05
31483;BME280;18103;52.246;8.052;2023-07-20T05:56:40;100222.97;;;16.03;86.85
31483;BME280;18103;52.246;8.052;2023-07-20T05:59:05;100226.94;;;15.99;86.90
31483;BME280;18103;52.246;8.052;2023-07-20T06:01:35;100230.06;;;15.86;87.30
31483;BME280;18103;52.246;8.052;2023-07-20T06:04:00;100237.75;;;15.97;87.23
31483;BME280;18103;52.246;8.052;2023-07-20T06:06:31;100239.66;;;16.05;87.10
31483;BME280;18103;52.246;8.052;2023-07-20T06:09:00;100235.84;;;16.16;86.60
31483;BME280;18103;52.246;8.052;2023-07-20T06:11:29;100239.59;;;15.97;86.64
31483;BME280;18103;52.246;8.052;2023-07-20T06:13:55;100243.69;;;15.83;87.34
31483;BME280;18103;52.246;8.052;2023-07-20T06:16:23;100238.53;;;15.81;87.93
31483;BME280;18103;52.246;8.052;2023-07-20T06:18:51;100240.09;;;16.00;87.01
31483;BME280;18103;52.246;8.052;2023-07-20T06:21:16;100251.56;;;15.93;86.75
31483;BME280;18103;52.246;8.052;2023-07-20T06:23:41;100246.56;;;15.89;87.07
31483;BME280;18103;52.246;8.052;2023-07-20T06:26:10;100250.09;;;15.98;87.13
31483;BME280;18103;52.246;8.052;2023-07-20T06:28:35;100252.38;;;15.93;87.52
31483;BME280;18103;52.246;8.052;2023-07-20T06:31:08;100252.69;;;16.16;87.04
31483;BME280;18103;52.246;8.052;2023-07-20T06:33:33;100252.59;;;16.34;86.93
31483;BME280;18103;52.246;8.052;2023-07-20T06:36:04;100259.44;;;16.45;86.33
31483;BME280;18103;52.246;8.052;2023-07-20T06:38:29;100261.84;;;16.22;87.12
31483;BME280;18103;52.246;8.052;2023-07-20T06:40:55;100259.09;;;16.05;87.04
31483;BME280;18103;52.246;8.052;2023-07-20T06:43:20;100256.06;;;16.00;86.79
31483;BME280;18103;52.246;8.052;2023-07-20T06:45:51;100251.50;;;16.11;87.19
31483;BME280;18103;52.246;8.052;2023-07-20T06:48:19;100258.56;;;16.02;87.42
31483;BME280;18103;52.246;8.052;2023-07-20T06:50:47;100255.91;;;16.02;86.77
31483;BME280;18103;52.246;8.052;2023-07-20T06:53:13;100258.56;;;16.02;86.57
31483;BME280;18103;52.246;8.052;2023-07-20T06:55:38;100260.88;;;16.23;86.32
31483;BME280;18103;52.246;8.052;2023-07-20T06:58:04;100264.44;;;16.40;84.97
31483;BME280;18103;52.246;8.052;2023-07-20T07:00:30;100262.97;;;16.11;85.59
31483;BME280;18103;52.246;8.052;2023-07-20T07:02:55;100271.66;;;16.13;85.67
31483;BME280;18103;52.246;8.052;2023-07-20T07:05:20;100274.47;;;16.20;85.59
31483;BME280;18103;52.246;8.052;2023-07-20T07:07:46;100275.91;;;16.40;85.26
31483;BME280;18103;52.246;8.052;2023-07-20T07:10:12;100280.75;;;16.45;84.87
31483;BME280;18103;52.246;8.052;2023-07-20T07:12:39;100281.13;;;16.16;85.18
31483;BME280;18103;52.246;8.052;2023-07-20T07:15:05;100276.72;;;15.98;86.36
31483;BME280;18103;52.246;8.052;2023-07-20T07:17:33;100280.09;;;16.08;86.10
31483;BME280;18103;52.246;8.052;2023-07-20T07:19:59;100285.94;;;16.12;86.00
31483;BME280;18103;52.246;8.052;2023-07-20T07:22:27;100278.06;;;16.02;86.29
31483;BME280;18103;52.246;8.052;2023-07-20T07:24:52;100288.09;;;16.43;85.08
31483;BME280;18103;52.246;8.052;2023-07-20T07:27:21;100287.13;;;16.60;85.50
31483;BME280;18103;52.246;8.052;2023-07-20T07:29:49;100286.25;;;16.43;85.20
31483;BME280;18103;52.246;8.052;2023-07-20T07:32:17;100279.81;;;16.63;84.46
31483;BME280;18103;52.246;8.052;2023-07-20T07:34:43;100286.47;;;16.58;83.85
31483;BME280;18103;52.246;8.052;2023-07-20T07:37:13;100284.59;;;16.51;82.38
31483;BME280;18103;52.246;8.052;2023-07-20T07:39:39;100288.03;;;16.69;82.85
31483;BME280;18103;52.246;8.052;2023-07-20T07:42:05;100294.00;;;16.71;83.21
31483;BME280;18103;52.246;8.052;2023-07-20T07:44:33;100282.56;;;16.79;83.03
31483;BME280;18103;52.246;8.052;2023-07-20T07:47:03;100286.88;;;16.72;82.50
31483;BME280;18103;52.246;8.052;2023-07-20T07:49:28;100290.34;;;16.72;81.01
31483;BME280;18103;52.246;8.052;2023-07-20T07:51:56;100290.47;;;16.97;80.54
31483;BME280;18103;52.246;8.052;2023-07-20T07:54:22;100300.13;;;17.06;81.01
31483;BME280;18103;52.246;8.052;2023-07-20T07:56:47;100292.97;;;16.99;79.92
31483;BME280;18103;52.246;8.052;2023-07-20T07:59:15;100301.28;;;17.04;80.01
31483;BME280;18103;52.246;8.052;2023-07-20T08:01:40;100299.63;;;16.95;78.96
31483;BME280;18103;52.246;8.052;2023-07-20T08:04:08;100306.97;;;17.17;81.90
31483;BME280;18103;52.246;8.052;2023-07-20T08:06:33;100307.31;;;17.39;80.47
31483;BME280;18103;52.246;8.052;2023-07-20T08:09:01;100305.66;;;17.21;76.81
31483;BME280;18103;52.246;8.052;2023-07-20T08:11:27;100305.97;;;17.35;77.94
31483;BME280;18103;52.246;8.052;2023-07-20T08:13:52;100304.66;;;17.22;75.86
31483;BME280;18103;52.246;8.052;2023-07-20T08:16:18;100310.63;;;17.16;76.89
31483;BME280;18103;52.246;8.052;2023-07-20T08:18:43;100307.16;;;17.16;77.77
31483;BME280;18103;52.246;8.052;2023-07-20T08:21:10;100310.16;;;17.13;77.87
31483;BME280;18103;52.246;8.052;2023-07-20T08:23:36;100304.66;;;17.47;78.54
31483;BME280;18103;52.246;8.052;2023-07-20T08:26:03;100309.19;;;17.47;76.80
31483;BME280;18103;52.246;8.052;2023-07-20T08:28:29;100318.50;;;17.42;75.39
31483;BME280;18103;52.246;8.052;2023-07-20T08:30:54;100302.34;;;17.60;75.52
31483;BME280;18103;52.246;8.052;2023-07-20T08:33:19;100308.84;;;17.91;77.34
31483;BME280;18103;52.246;8.052;2023-07-20T08:35:45;100308.69;;;17.92;74.73
31483;BME280;18103;52.246;8.052;2023-07-20T08:38:11;100306.47;;;17.88;77.11
31483;BME280;18103;52.246;8.052;2023-07-20T08:40:44;100300.81;;;17.74;73.82
31483;BME280;18103;52.246;8.052;2023-07-20T08:43:10;100310.00;;;17.64;73.08
31483;BME280;18103;52.246;8.052;2023-07-20T08:45:40;100313.81;;;17.44;72.12
31483;BME280;18103;52.246;8.052;2023-07-20T08:48:10;100320.84;;;17.70;73.45
31483;BME280;18103;52.246;8.052;2023-07-20T08:50:37;100315.84;;;17.51;71.05
31483;BME280;18103;52.246;8.052;2023-07-20T08:53:03;100314.34;;;17.89;75.23
31483;BME280;18103;52.246;8.052;2023-07-20T08:55:29;100312.84;;;17.78;71.60
31483;BME280;18103;52.246;8.052;2023-07-20T08:57:57;100310.47;;;17.84;70.74
31483;BME280;18103;52.246;8.052;2023-07-20T09:00:26;100314.00;;;17.84;70.18
31483;BME280;18103;52.246;8.052;2023-07-20T09:02:53;100313.84;;;17.94;70.12
31483;BME280;18103;52.246;8.052;2023-07-20T09:05:20;100321.69;;;18.04;70.67
31483;BME280;18103;52.246;8.052;2023-07-20T09:07:48;100314.84;;;18.01;70.15
31483;BME280;18103;52.246;8.052;2023-07-20T09:10:16;100317.00;;;17.73;69.55
31483;BME280;18103;52.246;8.052;2023-07-20T09:12:42;100319.84;;;17.55;67.22
31483;BME280;18103;52.246;8.052;2023-07-20T09:15:11;100315.69;;;17.69;69.58
31483;BME280;18103;52.246;8.052;2023-07-20T09:17:37;100317.66;;;18.16;69.16
31483;BME280;18103;52.246;8.052;2023-07-20T09:20:07;100313.91;;;18.34;66.66
31483;BME280;18103;52.246;8.052;2023-07-20T09:22:38;100313.84;;;18.50;64.65
31483;BME280;18103;52.246;8.052;2023-07-20T09:25:17;100311.88;;;18.44;66.55
31483;BME280;18103;52.246;8.052;2023-07-20T09:27:45;100324.06;;;18.38;68.87
31483;BME280;18103;52.246;8.052;2023-07-20T09:30:11;100318.13;;;18.20;66.95
31483;BME280;18103;52.246;8.052;2023-07-20T09:35:22;100318.19;;;17.95;67.58
31483;BME280;18103;52.246;8.052;2023-07-20T09:37:50;100319.09;;;18.27;67.66
31483;BME280;18103;52.246;8.052;2023-07-20T09:40:20;100321.25;;;18.40;65.33
31483;BME280;18103;52.246;8.052;2023-07-20T09:42:47;100310.03;;;18.44;65.77
31483;BME280;18103;52.246;8.052;2023-07-20T09:45:13;100314.03;;;18.49;64.45
31483;BME280;18103;52.246;8.052;2023-07-20T09:47:39;100320.97;;;18.66;65.87
31483;BME280;18103;52.246;8.052;2023-07-20T09:50:06;100314.16;;;18.63;64.77
31483;BME280;18103;52.246;8.052;2023-07-20T09:52:38;100320.66;;;18.61;65.08
31483;BME280;18103;52.246;8.052;2023-07-20T09:55:05;100314.97;;;18.64;66.78
31483;BME280;18103;52.246;8.052;2023-07-20T09:57:33;100314.28;;;18.62;64.25
31483;BME280;18103;52.246;8.052;2023-07-20T09:59:58;100316.50;;;18.58;63.99
31483;BME280;18103;52.246;8.052;2023-07-20T10:02:32;100310.44;;;18.64;64.83
31483;BME280;18103;52.246;8.052;2023-07-20T10:05:05;100312.41;;;18.79;64.11
31483;BME280;18103;52.246;8.052;2023-07-20T10:07:36;100313.22;;;18.79;64.90
31483;BME280;18103;52.246;8.052;2023-07-20T10:10:06;100311.34;;;18.88;65.64
31483;BME280;18103;52.246;8.052;2023-07-20T10:12:32;100308.00;;;18.86;63.58
31483;BME280;18103;52.246;8.052;2023-07-20T10:15:28;100304.69;;;19.15;62.67
31483;BME280;18103;52.246;8.052;2023-07-20T10:18:11;100304.91;;;19.52;60.55
31483;BME280;18103;52.246;8.052;2023-07-20T10:20:40;100305.44;;;19.47;60.69
31483;BME280;18103;52.246;8.052;2023-07-20T10:23:12;100298.56;;;19.68;59.22
31483;BME280;18103;52.246;8.052;2023-07-20T10:25:38;100299.66;;;19.59;59.39
31483;BME280;18103;52.246;8.052;2023-07-20T10:28:07;100302.69;;;19.56;60.86
31483;BME280;18103;52.246;8.052;2023-07-20T10:30:36;100299.34;;;19.77;60.80
31483;BME280;18103;52.246;8.052;2023-07-20T10:33:05;100297.63;;;20.14;57.65
31483;BME280;18103;52.246;8.052;2023-07-20T10:35:31;100296.06;;;19.66;57.02
31483;BME280;18103;52.246;8.052;2023-07-20T10:38:15;100297.81;;;19.82;58.54
31483;BME280;18103;52.246;8.052;2023-07-20T10:40:40;100290.03;;;19.88;58.54
31483;BME280;18103;52.246;8.052;2023-07-20T10:43:07;100297.69;;;19.53;57.06
31483;BME280;18103;52.246;8.052;2023-07-20T10:45:41;100290.44;;;19.76;58.52
31483;BME280;18103;52.246;8.052;2023-07-20T10:48:24;100285.06;;;19.61;57.42
31483;BME280;18103;52.246;8.052;2023-07-20T10:51:19;100286.34;;;19.89;58.69
31483;BME280;18103;52.246;8.052;2023-07-20T10:53:48;100290.13;;;19.94;56.83
31483;BME280;18103;52.246;8.052;2023-07-20T10:56:20;100285.06;;;20.14;57.41
31483;BME280;18103;52.246;8.052;2023-07-20T10:58:46;100290.25;;;20.01;56.95
31483;BME280;18103;52.246;8.052;2023-07-20T11:01:17;100296.69;;;19.92;56.95
31483;BME280;18103;52.246;8.052;2023-07-20T11:03:43;100285.06;;;19.85;56.03
31483;BME280;18103;52.246;8.052;2023-07-20T11:09:06;100291.34;;;19.92;59.13
31483;BME280;18103;52.246;8.052;2023-07-20T11:11:39;100283.84;;;19.87;60.71
31483;BME280;18103;52.246;8.052;2023-07-20T11:14:11;100286.06;;;19.83;57.34
31483;BME280;18103;52.246;8.052;2023-07-20T11:16:48;100279.78;;;19.91;57.41
31483;BME280;18103;52.246;8.052;2023-07-20T11:19:22;100284.88;;;20.01;57.06
31483;BME280;18103;52.246;8.052;2023-07-20T11:21:56;100280.63;;;19.92;56.02
31483;BME280;18103;52.246;8.052;2023-07-20T11:24:26;100276.13;;;19.92;57.28
31483;BME280;18103;52.246;8.052;2023-07-20T11:26:54;100279.69;;;20.14;57.94
31483;BME280;18103;52.246;8.052;2023-07-20T11:29:24;100279.31;;;20.32;58.07
31483;BME280;18103;52.246;8.052;2023-07-20T11:31:55;100281.09;;;20.40;55.72
31483;BME280;18103;52.246;8.052;2023-07-20T11:34:24;100273.88;;;20.26;54.49
31483;BME280;18103;52.246;8.052;2023-07-20T11:36:51;100277.66;;;20.46;54.67
31483;BME280;18103;52.246;8.052;2023-07-20T11:39:18;100275.44;;;20.50;55.16
31483;BME280;18103;52.246;8.052;2023-07-20T11:41:47;100279.13;;;20.64;56.72
31483;BME280;18103;52.246;8.052;2023-07-20T11:44:20;100276.03;;;20.67;54.67
31483;BME280;18103;52.246;8.052;2023-07-20T11:46:58;100271.81;;;20.94;56.12
31483;BME280;18103;52.246;8.052;2023-07-20T11:49:27;100267.50;;;21.15;53.53
31483;BME280;18103;52.246;8.052;2023-07-20T11:51:52;100277.31;;;21.29;54.56
31483;BME280;18103;52.246;8.052;2023-07-20T11:54:18;100271.78;;;21.52;54.27
31483;BME280;18103;52.246;8.052;2023-07-20T11:56:43;100266.50;;;21.44;53.67
31483;BME280;18103;52.246;8.052;2023-07-20T11:59:09;100274.13;;;21.19;54.66
31483;BME280;18103;52.246;8.052;2023-07-20T12:01:34;100271.78;;;21.09;55.05
31483;BME280;18103;52.246;8.052;2023-07-20T12:04:02;100270.41;;;20.98;53.73
31483;BME280;18103;52.246;8.052;2023-07-20T12:06:28;100269.91;;;20.88;54.24
31483;BME280;18103;52.246;8.052;2023-07-20T12:08:56;100260.78;;;21.04;55.86
31483;BME280;18103;52.246;8.052;2023-07-20T12:11:53;100260.41;;;22.62;52.52
31483;BME280;18103;52.246;8.052;2023-07-20T12:14:19;100259.06;;;22.93;50.17
31483;BME280;18103;52.246;8.052;2023-07-20T12:16:52;100255.00;;;23.24;49.53
31483;BME280;18103;52.246;8.052;2023-07-20T12:19:18;100252.50;;;23.22;50.23
31483;BME280;18103;52.246;8.052;2023-07-20T12:21:45;100241.72;;;23.36;49.61
31483;BME280;18103;52.246;8.052;2023-07-20T12:24:11;100248.78;;;23.44;50.24
31483;BME280;18103;52.246;8.052;2023-07-20T12:26:39;100248.78;;;23.44;49.91
31483;BME280;18103;52.246;8.052;2023-07-20T12:29:04;100249.38;;;23.66;49.33
31483;BME280;18103;52.246;8.052;2023-07-20T12:31:34;100252.09;;;23.52;50.79
31483;BME280;18103;52.246;8.052;2023-07-20T12:34:01;100248.38;;;23.47;49.77
31483;BME280;18103;52.246;8.052;2023-07-20T12:36:27;100242.97;;;23.13;49.77
31483;BME280;18103;52.246;8.052;2023-07-20T12:38:52;100246.25;;;23.15;50.14
31483;BME280;18103;52.246;8.052;2023-07-20T12:41:20;100254.72;;;22.92;50.73
31483;BME280;18103;52.246;8.052;2023-07-20T12:43:45;100247.41;;;22.66;49.70
31483;BME280;18103;52.246;8.052;2023-07-20T12:46:13;100247.66;;;22.29;50.01
31483;BME280;18103;52.246;8.052;2023-07-20T12:48:40;100252.94;;;22.44;50.83
31483;BME280;18103;52.246;8.052;2023-07-20T12:51:07;100253.81;;;22.16;51.04
31483;BME280;18103;52.246;8.052;2023-07-20T12:53:33;100261.22;;;22.14;51.56
31483;BME280;18103;52.246;8.052;2023-07-20T12:56:03;100253.31;;;22.06;51.45
31483;BME280;18103;52.246;8.052;2023-07-20T12:58:29;100257.19;;;21.62;52.50
31483;BME280;18103;52.246;8.052;2023-07-20T13:00:57;100260.81;;;21.76;52.14
31483;BME280;18103;52.246;8.052;2023-07-20T13:03:22;100260.06;;;21.39;52.39
31483;BME280;18103;52.246;8.052;2023-07-20T13:05:48;100264.09;;;21.28;52.87
31483;BME280;18103;52.246;8.052;2023-07-20T13:08:14;100272.09;;;21.21;53.11